sensor_id;sensor_type;location;lat;lon;timestamp;pressure;altitude;pressure_sealevel;temperature;humidity
57948;BME280;43754;56.992;24.292;2023-04-09T00:01:37;102501.78;;;3.21;100.00
57948;BME280;43754;56.992;24.292;2023-04-09T00:04:09;102496.63;;;3.18;99.89
57948;BME280;43754;56.992;24.292;2023-04-09T00:06:41;102494.16;;;3.15;100.00
57948;BME280;43754;56.992;24.292;2023-04-09T00:09:13;102495.47;;;3.08;100.00
57948;BME280;43754;56.992;24.292;2023-04-09T00:11:46;102492.75;;;2.94;100.00
57948;BME280;43754;56.992;24.292;2023-04-09T00:14:18;102491.47;;;2.85;100.00
57948;BME280;43754;56.992;24.292;2023-04-09T00:16:50;102490.81;;;2.82;100.00
57948;BME280;43754;56.992;24.292;2023-04-09T00:19:22;102495.53;;;2.61;100.00
57948;BME280;43754;56.992;24.292;2023-04-09T00:21:54;102490.13;;;2.47;100.00
57948;BME280;43754;56.992;24.292;2023-04-09T00:24:26;102494.31;;;2.51;100.00
57948;BME280;43754;56.992;24.292;2023-04-09T00:27:00;102494.41;;;2.34;100.00
57948;BME280;43754;56.992;24.292;2023-04-09T00:29:32;102495.34;;;2.33;100.00
57948;BME280;43754;56.992;24.292;2023-04-09T00:32:04;102498.00;;;2.33;100.00
57948;BME280;43754;56.992;24.292;2023-04-09T00:34:36;102499.44;;;2.22;100.00
57948;BME280;43754;56.992;24.292;2023-04-09T00:37:09;102496.34;;;2.30;100.00
57948;BME280;43754;56.992;24.292;2023-04-09T00:39:41;102495.34;;;2.33;100.00
57948;BME280;43754;56.992;24.292;2023-04-09T00:42:14;102486.88;;;2.26;100.00
57948;BME280;43754;56.992;24.292;2023-04-09T00:44:47;102503.78;;;2.23;100.00
57948;BME280;43754;56.992;24.292;2023-04-09T00:47:20;102497.03;;;2.18;100.00
57948;BME280;43754;56.992;24.292;2023-04-09T00:49:52;102491.59;;;2.21;100.00
57948;BME280;43754;56.992;24.292;2023-04-09T00:52:24;102492.34;;;2.23;100.00
57948;BME280;43754;56.992;24.292;2023-04-09T00:54:58;102500.69;;;2.15;100.00
57948;BME280;43754;56.992;24.292;2023-04-09T00:57:32;102500.69;;;2.00;100.00
57948;BME280;43754;56.992;24.292;2023-04-09T01:00:05;102499.56;;;2.04;100.00
57948;BME280;43754;56.992;24.292;2023-04-09T01:02:38;102509.81;;;2.10;100.00
57948;BME280;43754;56.992;24.292;2023-04-09T01:05:12;102506.31;;;2.09;100.00
57948;BME280;43754;56.992;24.292;2023-04-09T01:07:54;102509.28;;;2.03;100.00
57948;BME280;43754;56.992;24.292;2023-04-09T01:10:38;102505.72;;;2.04;100.00
57948;BME280;43754;56.992;24.292;2023-04-09T01:13:18;102501.25;;;2.05;100.00
57948;BME280;43754;56.992;24.292;2023-04-09T01:15:53;102516.53;;;2.00;100.00
57948;BME280;43754;56.992;24.292;2023-04-09T01:18:30;102514.09;;;1.79;100.00
57948;BME280;43754;56.992;24.292;2023-04-09T01:21:10;102514.09;;;1.79;100.00
57948;BME280;43754;56.992;24.292;2023-04-09T01:23:46;102512.28;;;1.80;100.00
57948;BME280;43754;56.992;24.292;2023-04-09T01:26:26;102508.72;;;1.81;100.00
57948;BME280;43754;56.992;24.292;2023-04-09T01:29:04;102505.38;;;1.77;100.00
57948;BME280;43754;56.992;24.292;2023-04-09T01:31:38;102508.09;;;1.76;100.00
57948;BME280;43754;56.992;24.292;2023-04-09T01:34:12;102512.00;;;1.69;100.00
57948;BME280;43754;56.992;24.292;2023-04-09T01:36:50;102516.38;;;1.70;100.00
57948;BME280;43754;56.992;24.292;2023-04-09T01:39:23;102514.72;;;1.67;100.00
57948;BME280;43754;56.992;24.292;2023-04-09T01:41:55;102510.28;;;1.68;100.00
57948;BME280;43754;56.992;24.292;2023-04-09T01:44:30;102512.78;;;1.71;100.00
57948;BME280;43754;56.992;24.292;2023-04-09T01:47:03;102513.78;;;1.68;100.00
57948;BME280;43754;56.992;24.292;2023-04-09T01:49:36;102512.56;;;1.58;100.00
57948;BME280;43754;56.992;24.292;2023-04-09T01:52:09;102515.22;;;1.58;100.00
57948;BME280;43754;56.992;24.292;2023-04-09T01:54:41;102520.34;;;1.61;100.00
57948;BME280;43754;56.992;24.292;2023-04-09T01:57:13;102519.53;;;1.59;100.00
57948;BME280;43754;56.992;24.292;2023-04-09T01:59:47;102523.28;;;1.55;100.00
57948;BME280;43754;56.992;24.292;2023-04-09T02:02:26;102510.75;;;1.59;100.00
57948;BME280;43754;56.992;24.292;2023-04-09T02:05:00;102517.22;;;1.53;100.00
57948;BME280;43754;56.992;24.292;2023-04-09T02:07:38;102517.53;;;1.47;100.00
57948;BME280;43754;56.992;24.292;2023-04-09T02:10:13;102513.34;;;1.43;100.00
57948;BME280;43754;56.992;24.292;2023-04-09T02:12:50;102518.56;;;1.45;100.00
57948;BME280;43754;56.992;24.292;2023-04-09T02:15:23;102515.22;;;1.41;100.00
57948;BME280;43754;56.992;24.292;2023-04-09T02:17:57;102512.41;;;1.27;100.00
57948;BME280;43754;56.992;24.292;2023-04-09T02:20:30;102506.66;;;1.19;100.00
57948;BME280;43754;56.992;24.292;2023-04-09T02:23:02;102512.78;;;1.19;100.00
57948;BME280;43754;56.992;24.292;2023-04-09T02:25:34;102508.22;;;1.23;100.00
57948;BME280;43754;56.992;24.292;2023-04-09T02:28:06;102510.84;;;1.23;100.00
57948;BME280;43754;56.992;24.292;2023-04-09T02:30:40;102517.66;;;1.10;100.00
57948;BME280;43754;56.992;24.292;2023-04-09T02:33:12;102515.25;;;1.05;100.00
57948;BME280;43754;56.992;24.292;2023-04-09T02:35:44;102508.34;;;1.03;100.00
57948;BME280;43754;56.992;24.292;2023-04-09T02:38:16;102510.28;;;0.99;100.00
57948;BME280;43754;56.992;24.292;2023-04-09T02:40:48;102513.31;;;0.91;100.00
57948;BME280;43754;56.992;24.292;2023-04-09T02:43:20;102508.16;;;0.88;100.00
57948;BME280;43754;56.992;24.292;2023-04-09T02:45:53;102510.72;;;0.90;100.00
57948;BME280;43754;56.992;24.292;2023-04-09T02:48:25;102511.28;;;0.97;100.00
57948;BME280;43754;56.992;24.292;2023-04-09T02:50:57;102509.50;;;0.97;100.00
57948;BME280;43754;56.992;24.292;2023-04-09T02:53:29;102514.38;;;0.87;100.00
57948;BME280;43754;56.992;24.292;2023-04-09T02:56:02;102517.47;;;0.78;100.00
57948;BME280;43754;56.992;24.292;2023-04-09T02:58:34;102512.19;;;0.78;100.00
57948;BME280;43754;56.992;24.292;2023-04-09T03:01:07;102508.53;;;0.81;100.00
57948;BME280;43754;56.992;24.292;2023-04-09T03:03:39;102507.66;;;0.80;100.00
57948;BME280;43754;56.992;24.292;2023-04-09T03:06:13;102520.09;;;0.78;100.00
57948;BME280;43754;56.992;24.292;2023-04-09T03:08:45;102516.44;;;0.81;100.00
57948;BME280;43754;56.992;24.292;2023-04-09T03:11:17;102518.38;;;0.77;100.00
57948;BME280;43754;56.992;24.292;2023-04-09T03:13:50;102525.50;;;0.75;100.00
57948;BME280;43754;56.992;24.292;2023-04-09T03:16:24;102514.03;;;0.76;100.00
57948;BME280;43754;56.992;24.292;2023-04-09T03:18:57;102515.81;;;0.76;100.00
57948;BME280;43754;56.992;24.292;2023-04-09T03:21:29;102516.75;;;0.75;100.00
57948;BME280;43754;56.992;24.292;2023-04-09T03:24:01;102515.41;;;0.66;100.00
57948;BME280;43754;56.992;24.292;2023-04-09T03:26:34;102516.34;;;0.65;100.00
57948;BME280;43754;56.992;24.292;2023-04-09T03:29:09;102505.13;;;0.60;100.00
57948;BME280;43754;56.992;24.292;2023-04-09T03:31:42;102523.81;;;0.56;100.00
57948;BME280;43754;56.992;24.292;2023-04-09T03:34:15;102520.53;;;0.51;100.00
57948;BME280;43754;56.992;24.292;2023-04-09T03:36:51;102525.75;;;0.52;100.00
57948;BME280;43754;56.992;24.292;2023-04-09T03:39:27;102523.97;;;0.53;100.00
57948;BME280;43754;56.992;24.292;2023-04-09T03:42:02;102524.84;;;0.53;100.00
57948;BME280;43754;56.992;24.292;2023-04-09T03:44:45;102527.69;;;0.49;100.00
57948;BME280;43754;56.992;24.292;2023-04-09T03:47:23;102528.59;;;0.47;100.00
57948;BME280;43754;56.992;24.292;2023-04-09T03:49:56;102530.13;;;0.53;100.00
57948;BME280;43754;56.992;24.292;2023-04-09T03:52:31;102532.59;;;0.56;100.00
57948;BME280;43754;56.992;24.292;2023-04-09T03:55:09;102532.53;;;0.58;100.00
57948;BME280;43754;56.992;24.292;2023-04-09T03:57:42;102532.31;;;0.62;100.00
57948;BME280;43754;56.992;24.292;2023-04-09T04:00:18;102536.22;;;0.72;100.00
57948;BME280;43754;56.992;24.292;2023-04-09T04:03:24;102532.66;;;0.73;100.00
57948;BME280;43754;56.992;24.292;2023-04-09T04:06:16;102529.88;;;0.76;100.00
57948;BME280;43754;56.992;24.292;2023-04-09T04:09:00;102534.28;;;0.76;100.00
57948;BME280;43754;56.992;24.292;2023-04-09T04:11:42;102535.31;;;0.73;100.00
57948;BME280;43754;56.992;24.292;2023-04-09T04:14:15;102535.84;;;0.80;100.00
57948;BME280;43754;56.992;24.292;2023-04-09T04:16:50;102539.28;;;0.82;100.00
57948;BME280;43754;56.992;24.292;2023-04-09T04:19:27;102535.50;;;0.87;100.00
57948;BME280;43754;56.992;24.292;2023-04-09T04:22:00;102542.34;;;0.91;100.00
57948;BME280;43754;56.992;24.292;2023-04-09T04:24:33;102539.41;;;0.98;100.00
57948;BME280;43754;56.992;24.292;2023-04-09T04:27:06;102540.88;;;1.03;100.00
57948;BME280;43754;56.992;24.292;2023-04-09T04:29:40;102537.88;;;1.11;100.00
57948;BME280;43754;56.992;24.292;2023-04-09T04:32:25;102537.81;;;1.12;100.00
57948;BME280;43754;56.992;24.292;2023-04-09T04:35:00;102537.66;;;1.15;100.00
57948;BME280;43754;56.992;24.292;2023-04-09T04:37:34;102545.41;;;1.18;100.00
57948;BME280;43754;56.992;24.292;2023-04-09T04:40:07;102542.53;;;1.23;100.00
57948;BME280;43754;56.992;24.292;2023-04-09T04:42:44;102537.09;;;1.26;100.00
57948;BME280;43754;56.992;24.292;2023-04-09T04:45:19;102532.00;;;1.40;100.00
57948;BME280;43754;56.992;24.292;2023-04-09T04:47:55;102537.81;;;1.64;100.00
57948;BME280;43754;56.992;24.292;2023-04-09T04:50:28;102536.63;;;1.87;100.00
57948;BME280;43754;56.992;24.292;2023-04-09T04:53:05;102540.44;;;2.14;100.00
57948;BME280;43754;56.992;24.292;2023-04-09T04:55:45;102532.03;;;2.39;100.00
57948;BME280;43754;56.992;24.292;2023-04-09T04:58:20;102533.09;;;2.67;100.00
57948;BME280;43754;56.992;24.292;2023-04-09T05:00:57;102544.59;;;2.98;100.00
57948;BME280;43754;56.992;24.292;2023-04-09T05:03:31;102547.13;;;3.31;100.00
57948;BME280;43754;56.992;24.292;2023-04-09T05:06:15;102545.91;;;3.66;100.00
57948;BME280;43754;56.992;24.292;2023-04-09T05:08:49;102544.97;;;3.81;100.00
57948;BME280;43754;56.992;24.292;2023-04-09T05:11:21;102542.91;;;3.86;99.79
57948;BME280;43754;56.992;24.292;2023-04-09T05:13:53;102549.19;;;3.99;99.71
57948;BME280;43754;56.992;24.292;2023-04-09T05:16:27;102549.00;;;4.31;96.52
57948;BME280;43754;56.992;24.292;2023-04-09T05:19:06;102550.00;;;4.71;94.84
57948;BME280;43754;56.992;24.292;2023-04-09T05:21:40;102548.38;;;5.09;92.33
57948;BME280;43754;56.992;24.292;2023-04-09T05:24:12;102541.78;;;5.41;88.33
57948;BME280;43754;56.992;24.292;2023-04-09T05:26:44;102550.13;;;5.75;88.44
57948;BME280;43754;56.992;24.292;2023-04-09T05:29:16;102546.13;;;6.07;82.05
57948;BME280;43754;56.992;24.292;2023-04-09T05:31:48;102537.28;;;6.32;82.37
57948;BME280;43754;56.992;24.292;2023-04-09T05:34:32;102537.44;;;6.67;82.99
57948;BME280;43754;56.992;24.292;2023-04-09T05:37:06;102535.94;;;6.99;80.78
57948;BME280;43754;56.992;24.292;2023-04-09T05:39:38;102541.75;;;7.28;79.99
57948;BME280;43754;56.992;24.292;2023-04-09T05:42:11;102540.19;;;7.60;77.42
57948;BME280;43754;56.992;24.292;2023-04-09T05:45:03;102545.84;;;7.91;73.87
57948;BME280;43754;56.992;24.292;2023-04-09T05:47:36;102539.94;;;8.20;73.53
57948;BME280;43754;56.992;24.292;2023-04-09T05:50:15;102545.31;;;8.54;70.91
57948;BME280;43754;56.992;24.292;2023-04-09T05:52:49;102551.09;;;8.81;70.33
57948;BME280;43754;56.992;24.292;2023-04-09T05:55:21;102543.38;;;9.10;67.92
57948;BME280;43754;56.992;24.292;2023-04-09T05:58:03;102552.38;;;9.09;63.25
57948;BME280;43754;56.992;24.292;2023-04-09T06:00:35;102554.91;;;9.21;62.16
57948;BME280;43754;56.992;24.292;2023-04-09T06:03:07;102561.75;;;9.35;62.48
57948;BME280;43754;56.992;24.292;2023-04-09T06:05:39;102553.78;;;9.56;60.48
57948;BME280;43754;56.992;24.292;2023-04-09T06:08:13;102554.19;;;9.93;61.85
57948;BME280;43754;56.992;24.292;2023-04-09T06:10:45;102565.63;;;10.15;58.85
57948;BME280;43754;56.992;24.292;2023-04-09T06:13:17;102558.72;;;10.43;58.51
57948;BME280;43754;56.992;24.292;2023-04-09T06:15:49;102565.69;;;10.65;60.52
57948;BME280;43754;56.992;24.292;2023-04-09T06:18:21;102565.78;;;10.84;57.89
57948;BME280;43754;56.992;24.292;2023-04-09T06:21:00;102561.56;;;11.11;58.13
57948;BME280;43754;56.992;24.292;2023-04-09T06:23:34;102561.44;;;11.12;55.45
57948;BME280;43754;56.992;24.292;2023-04-09T06:26:07;102560.75;;;11.29;56.37
57948;BME280;43754;56.992;24.292;2023-04-09T06:28:39;102575.03;;;11.49;56.81
57948;BME280;43754;56.992;24.292;2023-04-09T06:31:11;102579.41;;;11.69;55.61
57948;BME280;43754;56.992;24.292;2023-04-09T06:33:43;102582.81;;;11.71;57.65
57948;BME280;43754;56.992;24.292;2023-04-09T06:36:15;102576.47;;;11.72;57.79
57948;BME280;43754;56.992;24.292;2023-04-09T06:38:48;102578.69;;;11.58;56.15
57948;BME280;43754;56.992;24.292;2023-04-09T06:41:20;102580.41;;;11.49;57.26
57948;BME280;43754;56.992;24.292;2023-04-09T06:43:53;102583.50;;;11.35;56.86
57948;BME280;43754;56.992;24.292;2023-04-09T06:46:25;102579.97;;;11.25;59.02
57948;BME280;43754;56.992;24.292;2023-04-09T06:48:57;102596.19;;;11.14;61.55
57948;BME280;43754;56.992;24.292;2023-04-09T06:51:29;102590.88;;;10.83;62.55
57948;BME280;43754;56.992;24.292;2023-04-09T06:54:03;102587.97;;;10.56;64.22
57948;BME280;43754;56.992;24.292;2023-04-09T06:56:36;102585.59;;;10.32;64.63
57948;BME280;43754;56.992;24.292;2023-04-09T06:59:07;102594.41;;;10.23;65.77
57948;BME280;43754;56.992;24.292;2023-04-09T07:01:39;102598.63;;;10.16;67.72
57948;BME280;43754;56.992;24.292;2023-04-09T07:04:12;102589.84;;;10.14;68.51
57948;BME280;43754;56.992;24.292;2023-04-09T07:06:44;102599.09;;;10.21;66.90
57948;BME280;43754;56.992;24.292;2023-04-09T07:09:19;102601.94;;;10.29;65.09
57948;BME280;43754;56.992;24.292;2023-04-09T07:11:51;102591.88;;;10.42;63.95
57948;BME280;43754;56.992;24.292;2023-04-09T07:14:23;102594.16;;;10.56;62.19
57948;BME280;43754;56.992;24.292;2023-04-09T07:16:55;102595.97;;;10.77;61.17
57948;BME280;43754;56.992;24.292;2023-04-09T07:19:26;102595.59;;;11.00;59.91
57948;BME280;43754;56.992;24.292;2023-04-09T07:21:58;102597.16;;;11.03;58.83
57948;BME280;43754;56.992;24.292;2023-04-09T07:24:32;102589.28;;;11.21;58.49
57948;BME280;43754;56.992;24.292;2023-04-09T07:27:04;102594.53;;;11.41;57.38
57948;BME280;43754;56.992;24.292;2023-04-09T07:29:36;102591.72;;;11.62;57.17
57948;BME280;43754;56.992;24.292;2023-04-09T07:32:08;102593.28;;;11.84;56.27
57948;BME280;43754;56.992;24.292;2023-04-09T07:34:40;102599.47;;;12.04;54.76
57948;BME280;43754;56.992;24.292;2023-04-09T07:37:12;102599.00;;;12.27;54.83
57948;BME280;43754;56.992;24.292;2023-04-09T07:39:46;102593.44;;;12.48;53.26
57948;BME280;43754;56.992;24.292;2023-04-09T07:42:18;102597.66;;;12.51;53.89
57948;BME280;43754;56.992;24.292;2023-04-09T07:44:50;102594.78;;;12.62;53.94
57948;BME280;43754;56.992;24.292;2023-04-09T07:47:22;102588.66;;;12.69;53.44
57948;BME280;43754;56.992;24.292;2023-04-09T07:49:54;102591.06;;;12.72;53.37
57948;BME280;43754;56.992;24.292;2023-04-09T07:52:26;102590.50;;;12.69;51.99
57948;BME280;43754;56.992;24.292;2023-04-09T07:55:00;102595.56;;;12.81;51.66
57948;BME280;43754;56.992;24.292;2023-04-09T07:57:32;102580.19;;;12.91;51.07
57948;BME280;43754;56.992;24.292;2023-04-09T08:00:05;102591.03;;;13.00;51.21
57948;BME280;43754;56.992;24.292;2023-04-09T08:02:43;102586.44;;;13.37;51.15
57948;BME280;43754;56.992;24.292;2023-04-09T08:05:16;102586.91;;;13.68;50.14
57948;BME280;43754;56.992;24.292;2023-04-09T08:07:50;102593.66;;;13.90;49.60
57948;BME280;43754;56.992;24.292;2023-04-09T08:10:23;102584.97;;;14.04;49.09
57948;BME280;43754;56.992;24.292;2023-04-09T08:12:55;102584.47;;;14.26;48.50
57948;BME280;43754;56.992;24.292;2023-04-09T08:15:27;102569.97;;;14.53;46.76
57948;BME280;43754;56.992;24.292;2023-04-09T08:17:59;102575.25;;;14.62;46.17
57948;BME280;43754;56.992;24.292;2023-04-09T08:20:33;102580.41;;;14.82;44.64
57948;BME280;43754;56.992;24.292;2023-04-09T08:23:05;102581.81;;;14.60;41.18
57948;BME280;43754;56.992;24.292;2023-04-09T08:25:39;102568.78;;;14.47;41.29
57948;BME280;43754;56.992;24.292;2023-04-09T08:28:11;102568.03;;;14.71;42.02
57948;BME280;43754;56.992;24.292;2023-04-09T08:30:43;102567.69;;;14.74;41.59
57948;BME280;43754;56.992;24.292;2023-04-09T08:33:16;102566.59;;;14.93;40.31
57948;BME280;43754;56.992;24.292;2023-04-09T08:35:48;102565.84;;;14.74;38.38
57948;BME280;43754;56.992;24.292;2023-04-09T08:38:20;102566.00;;;14.65;37.74
57948;BME280;43754;56.992;24.292;2023-04-09T08:40:54;102567.25;;;14.95;39.28
57948;BME280;43754;56.992;24.292;2023-04-09T08:43:27;102563.94;;;15.01;37.64
57948;BME280;43754;56.992;24.292;2023-04-09T08:46:21;102556.91;;;15.40;37.12
57948;BME280;43754;56.992;24.292;2023-04-09T08:48:53;102559.38;;;15.01;36.05
57948;BME280;43754;56.992;24.292;2023-04-09T08:51:25;102555.00;;;15.16;36.07
57948;BME280;43754;56.992;24.292;2023-04-09T08:54:00;102564.50;;;15.37;37.47
57948;BME280;43754;56.992;24.292;2023-04-09T08:56:37;102554.56;;;15.53;35.72
57948;BME280;43754;56.992;24.292;2023-04-09T08:59:09;102548.00;;;15.72;35.88
57948;BME280;43754;56.992;24.292;2023-04-09T09:01:41;102562.88;;;15.76;35.13
57948;BME280;43754;56.992;24.292;2023-04-09T09:04:14;102558.13;;;15.78;35.01
57948;BME280;43754;56.992;24.292;2023-04-09T09:06:46;102563.19;;;15.97;36.12
57948;BME280;43754;56.992;24.292;2023-04-09T09:09:18;102562.97;;;16.23;34.77
57948;BME280;43754;56.992;24.292;2023-04-09T09:11:51;102563.34;;;16.04;32.53
57948;BME280;43754;56.992;24.292;2023-04-09T09:14:24;102567.75;;;15.89;33.76
57948;BME280;43754;56.992;24.292;2023-04-09T09:17:04;102558.81;;;15.72;34.52
57948;BME280;43754;56.992;24.292;2023-04-09T09:19:39;102565.91;;;15.81;33.83
57948;BME280;43754;56.992;24.292;2023-04-09T09:22:11;102560.66;;;15.96;34.36
57948;BME280;43754;56.992;24.292;2023-04-09T09:24:47;102559.44;;;16.15;35.20
57948;BME280;43754;56.992;24.292;2023-04-09T09:27:32;102559.06;;;16.26;34.81
57948;BME280;43754;56.992;24.292;2023-04-09T09:30:08;102561.09;;;16.16;34.45
57948;BME280;43754;56.992;24.292;2023-04-09T09:32:41;102562.63;;;16.26;34.66
57948;BME280;43754;56.992;24.292;2023-04-09T09:35:13;102548.69;;;16.45;33.49
57948;BME280;43754;56.992;24.292;2023-04-09T09:37:45;102540.53;;;16.62;34.12
57948;BME280;43754;56.992;24.292;2023-04-09T09:40:26;102554.50;;;16.34;34.51
57948;BME280;43754;56.992;24.292;2023-04-09T09:43:00;102553.63;;;16.34;33.66
57948;BME280;43754;56.992;24.292;2023-04-09T09:45:33;102546.78;;;16.15;35.07
57948;BME280;43754;56.992;24.292;2023-04-09T09:48:09;102552.06;;;16.47;34.63
57948;BME280;43754;56.992;24.292;2023-04-09T09:50:42;102538.31;;;16.73;34.04
57948;BME280;43754;56.992;24.292;2023-04-09T09:53:16;102530.25;;;16.88;33.68
57948;BME280;43754;56.992;24.292;2023-04-09T09:55:56;102532.16;;;16.79;33.48
57948;BME280;43754;56.992;24.292;2023-04-09T09:58:40;102536.09;;;16.77;33.57
57948;BME280;43754;56.992;24.292;2023-04-09T10:01:16;102546.56;;;16.80;33.48
57948;BME280;43754;56.992;24.292;2023-04-09T10:03:49;102547.06;;;16.36;34.58
57948;BME280;43754;56.992;24.292;2023-04-09T10:06:22;102538.38;;;16.57;34.70
57948;BME280;43754;56.992;24.292;2023-04-09T10:08:56;102550.31;;;16.24;34.10
57948;BME280;43754;56.992;24.292;2023-04-09T10:11:30;102551.09;;;16.32;35.04
57948;BME280;43754;56.992;24.292;2023-04-09T10:14:03;102539.16;;;16.66;34.29
57948;BME280;43754;56.992;24.292;2023-04-09T10:16:36;102536.59;;;16.72;34.94
57948;BME280;43754;56.992;24.292;2023-04-09T10:19:08;102532.06;;;16.95;34.34
57948;BME280;43754;56.992;24.292;2023-04-09T10:21:50;102533.53;;;17.06;34.65
57948;BME280;43754;56.992;24.292;2023-04-09T10:24:24;102528.88;;;17.23;34.01
57948;BME280;43754;56.992;24.292;2023-04-09T10:27:08;102522.41;;;17.01;34.62
57948;BME280;43754;56.992;24.292;2023-04-09T10:29:45;102533.66;;;17.13;33.31
57948;BME280;43754;56.992;24.292;2023-04-09T10:32:18;102532.81;;;16.89;35.03
57948;BME280;43754;56.992;24.292;2023-04-09T10:34:57;102526.25;;;17.07;35.11
57948;BME280;43754;56.992;24.292;2023-04-09T10:37:34;102528.44;;;17.11;34.33
57948;BME280;43754;56.992;24.292;2023-04-09T10:40:17;102531.09;;;16.88;35.05
57948;BME280;43754;56.992;24.292;2023-04-09T10:42:50;102535.19;;;16.84;34.47
57948;BME280;43754;56.992;24.292;2023-04-09T10:45:23;102524.63;;;16.97;34.91
57948;BME280;43754;56.992;24.292;2023-04-09T10:48:01;102527.00;;;16.92;34.44
57948;BME280;43754;56.992;24.292;2023-04-09T10:50:33;102529.31;;;17.03;34.71
57948;BME280;43754;56.992;24.292;2023-04-09T10:53:20;102529.72;;;16.92;34.20
57948;BME280;43754;56.992;24.292;2023-04-09T10:55:53;102533.31;;;16.85;34.95
57948;BME280;43754;56.992;24.292;2023-04-09T10:58:26;102527.47;;;16.73;33.88
57948;BME280;43754;56.992;24.292;2023-04-09T11:01:00;102533.00;;;16.80;35.13
57948;BME280;43754;56.992;24.292;2023-04-09T11:03:39;102533.72;;;17.05;34.09
57948;BME280;43754;56.992;24.292;2023-04-09T11:06:16;102534.09;;;17.24;33.81
57948;BME280;43754;56.992;24.292;2023-04-09T11:08:51;102525.13;;;17.46;34.25
57948;BME280;43754;56.992;24.292;2023-04-09T11:11:25;102528.06;;;17.37;33.28
57948;BME280;43754;56.992;24.292;2023-04-09T11:13:58;102525.00;;;17.17;34.48
57948;BME280;43754;56.992;24.292;2023-04-09T11:16:31;102525.66;;;17.19;34.40
57948;BME280;43754;56.992;24.292;2023-04-09T11:19:04;102530.84;;;17.29;34.32
57948;BME280;43754;56.992;24.292;2023-04-09T11:21:37;102531.69;;;17.29;34.04
57948;BME280;43754;56.992;24.292;2023-04-09T11:24:17;102529.03;;;17.21;34.76
57948;BME280;43754;56.992;24.292;2023-04-09T11:26:49;102530.75;;;16.91;34.71
57948;BME280;43754;56.992;24.292;2023-04-09T11:29:22;102531.59;;;16.53;36.04
57948;BME280;43754;56.992;24.292;2023-04-09T11:31:55;102537.81;;;16.53;36.01
57948;BME280;43754;56.992;24.292;2023-04-09T11:34:27;102545.34;;;16.35;35.99
57948;BME280;43754;56.992;24.292;2023-04-09T11:36:59;102538.09;;;16.28;36.59
57948;BME280;43754;56.992;24.292;2023-04-09T11:39:35;102541.38;;;16.07;36.29
57948;BME280;43754;56.992;24.292;2023-04-09T11:42:12;102537.72;;;16.39;37.39
57948;BME280;43754;56.992;24.292;2023-04-09T11:44:44;102539.53;;;16.63;36.68
57948;BME280;43754;56.992;24.292;2023-04-09T11:47:18;102533.22;;;16.70;37.06
57948;BME280;43754;56.992;24.292;2023-04-09T11:49:52;102537.41;;;16.81;35.95
57948;BME280;43754;56.992;24.292;2023-04-09T11:52:24;102538.22;;;16.42;36.10
57948;BME280;43754;56.992;24.292;2023-04-09T11:54:58;102542.06;;;16.01;37.20
57948;BME280;43754;56.992;24.292;2023-04-09T11:57:42;102538.94;;;16.28;36.57
57948;BME280;43754;56.992;24.292;2023-04-09T12:00:15;102537.22;;;16.43;36.74
57948;BME280;43754;56.992;24.292;2023-04-09T12:02:50;102540.66;;;16.13;36.44
57948;BME280;43754;56.992;24.292;2023-04-09T12:05:30;102537.00;;;15.98;36.62
57948;BME280;43754;56.992;24.292;2023-04-09T12:08:07;102541.03;;;16.02;37.71
57948;BME280;43754;56.992;24.292;2023-04-09T12:10:39;102547.72;;;16.30;37.08
57948;BME280;43754;56.992;24.292;2023-04-09T12:13:11;102545.13;;;15.82;37.04
57948;BME280;43754;56.992;24.292;2023-04-09T12:15:43;102535.78;;;16.08;38.07
57948;BME280;43754;56.992;24.292;2023-04-09T12:18:16;102538.91;;;16.44;37.87
57948;BME280;43754;56.992;24.292;2023-04-09T12:20:48;102533.16;;;16.39;37.97
57948;BME280;43754;56.992;24.292;2023-04-09T12:23:20;102523.97;;;16.56;37.27
57948;BME280;43754;56.992;24.292;2023-04-09T12:25:52;102531.50;;;16.77;36.52
57948;BME280;43754;56.992;24.292;2023-04-09T12:28:25;102534.00;;;16.40;36.18
57948;BME280;43754;56.992;24.292;2023-04-09T12:30:58;102534.19;;;16.30;36.58
57948;BME280;43754;56.992;24.292;2023-04-09T12:33:31;102529.66;;;16.23;37.43
57948;BME280;43754;56.992;24.292;2023-04-09T12:36:04;102530.19;;;16.10;37.16
57948;BME280;43754;56.992;24.292;2023-04-09T12:38:37;102543.41;;;16.05;37.25
57948;BME280;43754;56.992;24.292;2023-04-09T12:41:09;102537.00;;;15.98;37.34
57948;BME280;43754;56.992;24.292;2023-04-09T12:43:41;102528.69;;;15.99;37.34
57948;BME280;43754;56.992;24.292;2023-04-09T12:46:16;102536.66;;;15.93;37.13
57948;BME280;43754;56.992;24.292;2023-04-09T12:48:50;102539.38;;;15.77;37.06
57948;BME280;43754;56.992;24.292;2023-04-09T12:51:22;102536.31;;;15.39;37.60
57948;BME280;43754;56.992;24.292;2023-04-09T12:53:54;102535.28;;;15.32;38.50
57948;BME280;43754;56.992;24.292;2023-04-09T12:56:26;102543.25;;;15.58;38.24
57948;BME280;43754;56.992;24.292;2023-04-09T12:59:00;102540.41;;;15.68;38.37
57948;BME280;43754;56.992;24.292;2023-04-09T13:01:32;102540.38;;;15.76;38.83
57948;BME280;43754;56.992;24.292;2023-04-09T13:04:06;102537.03;;;15.82;37.90
57948;BME280;43754;56.992;24.292;2023-04-09T13:06:38;102538.53;;;15.60;38.32
57948;BME280;43754;56.992;24.292;2023-04-09T13:09:10;102536.00;;;15.50;38.93
57948;BME280;43754;56.992;24.292;2023-04-09T13:11:42;102540.47;;;15.09;38.97
57948;BME280;43754;56.992;24.292;2023-04-09T13:14:14;102531.88;;;15.14;39.85
57948;BME280;43754;56.992;24.292;2023-04-09T13:16:46;102529.75;;;14.76;39.72